Nebraska City, NE (68410)

3:37 PM CDT on July 27, 2016 (GMT -0500)
Nebraska City Municipal | | Change Station

Elev 1161 ft 40.61 °N, 95.86 °W | Updated 22 minutes ago

Scattered Clouds
Scattered Clouds
84 °F
Feels Like 88 °F
N
6
Wind Variable Wind from SW

Today
High -- | Low -- °F
--% Chance of Precip.
Yesterday
High -- | Low -- °F
Precip. -- in
Pressure 29.98 in
Visibility 10.0 miles
Clouds Scattered Clouds 4400 ft
Scattered Clouds 4900 ft
Heat Index 88 °F
Dew Point 69 °F
Humidity 61%
Rainfall 0.00 in
Snow Depth Not available.
6:16 AM 8:43 PM
Last Quarter, 40% visible
METAR KAFK 272015Z AUTO 23005KT 10SM SCT044 SCT049 29/21 A2998 RMK AO2 T02910208
Pressure 29.98 in
Visibility 10.0 miles
Clouds Scattered Clouds 4400 ft
Scattered Clouds 4900 ft
Heat Index 88 °F
Dew Point 69 °F
Humidity 61%
Rainfall 0.00 in
Snow Depth Not available.
6:16 AM 8:43 PM
Last Quarter, 40% visible
METAR KAFK 272015Z AUTO 23005KT 10SM SCT044 SCT049 29/21 A2998 RMK AO2 T02910208

10-Day Weather Forecast

Almanac

Astronomy

Jul. 27, 2016 Rise Set
Actual Time
Civil Twilight
Nautical Twilight
Astronomical Twilight
Moon
Length of Visible Light
Length of Day
Tomorrow will be .
, % of the Moon is Illuminated

Today's Extremes

State Highs State Lows

Community

WunderPhotos

Upload Photos

1,927,933 photos uploaded!

WunderBlog® & News

Nearby

Air Quality

  Air Quality AQ Index Pollutant
Not available.

Snow Depth

Station Depth Elevation

Earthquake Activity

City Distance Mag. Time & Date
Minimum magnitude displayed is 2.5.

Coastal Water Temperatures

Place Temperature

Stations

Nearby Weather Stations

Station Location Temp. Windchill Dew Point Humidity Wind Precip. Elev Updated Type
                   

Watches & Warnings

There are currently no watches in effect.